BIRKBGBW

Guest
Details From BIRK - Reykjavik
To BGBW - Narsarsuaq
Flight Number -
Tags decoded
Created
Modified
Stats Distance 672 nm / 1,245 km
Max Altitude 0 ft / 0 m
Waypoints 5
Social Downloads 6
Likes 0
Share

Download

Looking for another format? Having issues loading an existing format? Contact us
Advertisement - Login to hide

Notes

Requested: BIRK EMBLA 6330N 6240N BGBW

Route

BIRK EMBLA 6330N 6240N BGBW

ID Type Via Altitude (ft/m) Position (lat/lon) Dist (leg/tot) Name
O BIRK APT - 0 / 0 64.12964 / -21.94061 - / 0 nm Reykjavik
EMBLA FIX - 0 / 0 63.47000 / -26.98167 139 / 139 nm
6330N FIX - 0 / 0 63.00000 / -30.00000 86 / 225 nm
6240N LATLON - 0 / 0 62.00000 / -40.00000 283 / 509 nm
O BGBW APT - 0 / 0 61.16052 / -45.42598 163 / 672 nm Narsarsuaq

Altitude Profile

Advertisement - Login to hide

Weather


0- 5 10 15 20 25 30 35+ Temperature / °C

Clouds and Precipitation
Forecast for 2021-03-22 12:00 UTC. Updated 2 months ago

Ground ~20,000 ft ~40,000 ft Winds

BIRK

Details ICAO BIRK (RKV)
Name Reykjavik
Region Iceland
Timezone Atlantic/Reykjavik (UTC+0.0)
Stats Elevation 43 ft / 13 m (AMSL)
Location 64.130000° -21.940600°
Runways 2
Magnetic Variation 12.875° W

METAR

BIRK 080800Z 08005KT 040V130 CAVOK 02/M07 Q1017

Decode

TAF

TAF BIRK 080733Z 0809/0909 09007KT 9999 FEW040 TX07/0815Z TNM01/0905Z

Decode

Departure Runways

ID Width Length Bearing (true/mag) Surface Threshold Overrun Markings Lighting
01 148 ft / 45 m 5,243 ft / 1,598 m 355.27° / 8.15° ASPHALT 400 ft / 122 m 0 ft / 0 m PREC-APP EDGE THRESHOLD REIL-OMNI
13 148 ft / 45 m 4,184 ft / 1,275 m 116.31° / 129.18° ASPHALT 0 ft / 0 m 0 ft / 0 m PREC-APP EDGE THRESHOLD
19 148 ft / 45 m 5,243 ft / 1,598 m 175.27° / 188.14° ASPHALT 0 ft / 0 m 0 ft / 0 m PREC-APP EDGE THRESHOLD MALSR REIL-OMNI
31 148 ft / 45 m 4,184 ft / 1,275 m 296.33° / 309.20° ASPHALT 374 ft / 114 m 0 ft / 0 m PREC-APP EDGE THRESHOLD

BGBW

Details ICAO BGBW (UAK)
Name Narsarsuaq
Region Greenland
Timezone America/Godthab (UTC-2.0)
Stats Elevation 111 ft / 34 m (AMSL)
Location 61.160700° -45.425700°
Runways 1
Magnetic Variation 21.890° W

METAR

BGBW 080750Z AUTO 00000KT //// FEW065/// 01/M03 Q1023

Decode

TAF

Not found

Destination Runways

ID Width Length Bearing (true/mag) Surface Threshold Overrun Markings Lighting
07 148 ft / 45 m 6,010 ft / 1,832 m 40.52° / 62.41° CONCRETE 446 ft / 136 m 0 ft / 0 m PREC-APP EDGE THRESHOLD
25 148 ft / 45 m 6,010 ft / 1,832 m 220.54° / 242.43° CONCRETE 0 ft / 0 m 243 ft / 74 m PREC-APP EDGE THRESHOLD

Popular Alternatives